sensor_id;sensor_type;location;lat;lon;timestamp;pressure;altitude;pressure_sealevel;temperature;humidity
33554;BME280;19885;42.208;24.952;2024-03-06T00:02:12;99690.25;;;10.23;100.00
33554;BME280;19885;42.208;24.952;2024-03-06T00:04:40;99678.09;;;10.24;100.00
33554;BME280;19885;42.208;24.952;2024-03-06T00:07:08;99678.94;;;10.21;100.00
33554;BME280;19885;42.208;24.952;2024-03-06T00:09:36;99675.44;;;10.18;100.00
33554;BME280;19885;42.208;24.952;2024-03-06T00:12:04;99674.63;;;10.22;100.00
33554;BME280;19885;42.208;24.952;2024-03-06T00:14:31;99675.38;;;10.05;100.00
33554;BME280;19885;42.208;24.952;2024-03-06T00:16:57;99674.41;;;9.93;100.00
33554;BME280;19885;42.208;24.952;2024-03-06T00:19:25;99679.63;;;9.91;100.00
33554;BME280;19885;42.208;24.952;2024-03-06T00:21:51;99670.78;;;9.68;100.00
33554;BME280;19885;42.208;24.952;2024-03-06T00:24:17;99673.25;;;9.50;100.00
33554;BME280;19885;42.208;24.952;2024-03-06T00:26:45;99683.00;;;9.78;100.00
33554;BME280;19885;42.208;24.952;2024-03-06T00:29:12;99685.53;;;9.69;100.00
33554;BME280;19885;42.208;24.952;2024-03-06T00:31:42;99697.47;;;9.43;100.00
33554;BME280;19885;42.208;24.952;2024-03-06T00:34:08;99692.06;;;9.19;100.00
33554;BME280;19885;42.208;24.952;2024-03-06T00:36:39;99685.13;;;9.21;100.00
33554;BME280;19885;42.208;24.952;2024-03-06T00:39:04;99691.38;;;9.38;100.00
33554;BME280;19885;42.208;24.952;2024-03-06T00:41:30;99686.31;;;9.56;100.00
33554;BME280;19885;42.208;24.952;2024-03-06T00:43:58;99682.66;;;9.36;100.00
33554;BME280;19885;42.208;24.952;2024-03-06T00:46:26;99690.47;;;9.36;100.00
33554;BME280;19885;42.208;24.952;2024-03-06T00:48:54;99693.97;;;9.40;100.00
33554;BME280;19885;42.208;24.952;2024-03-06T00:51:19;99695.78;;;9.48;100.00
33554;BME280;19885;42.208;24.952;2024-03-06T00:53:50;99700.09;;;9.45;100.00
33554;BME280;19885;42.208;24.952;2024-03-06T00:56:22;99694.00;;;9.44;100.00
33554;BME280;19885;42.208;24.952;2024-03-06T00:58:50;99705.25;;;9.40;100.00
33554;BME280;19885;42.208;24.952;2024-03-06T01:01:15;99704.53;;;9.56;100.00
33554;BME280;19885;42.208;24.952;2024-03-06T01:03:46;99703.47;;;9.33;100.00
33554;BME280;19885;42.208;24.952;2024-03-06T01:06:11;99702.41;;;9.16;100.00
33554;BME280;19885;42.208;24.952;2024-03-06T01:08:37;99700.69;;;9.18;100.00
33554;BME280;19885;42.208;24.952;2024-03-06T01:11:02;99686.94;;;9.28;100.00
33554;BME280;19885;42.208;24.952;2024-03-06T01:13:29;99689.63;;;9.36;100.00
33554;BME280;19885;42.208;24.952;2024-03-06T01:15:54;99691.44;;;9.49;100.00
33554;BME280;19885;42.208;24.952;2024-03-06T01:18:25;99688.84;;;9.47;100.00
33554;BME280;19885;42.208;24.952;2024-03-06T01:20:50;99690.53;;;9.45;100.00
33554;BME280;19885;42.208;24.952;2024-03-06T01:23:16;99687.16;;;9.57;100.00
33554;BME280;19885;42.208;24.952;2024-03-06T01:25:42;99700.09;;;9.48;100.00
33554;BME280;19885;42.208;24.952;2024-03-06T01:28:07;99687.22;;;9.64;100.00
33554;BME280;19885;42.208;24.952;2024-03-06T01:30:32;99684.69;;;9.73;100.00
33554;BME280;19885;42.208;24.952;2024-03-06T01:32:57;99694.25;;;9.77;100.00
33554;BME280;19885;42.208;24.952;2024-03-06T01:35:26;99691.59;;;9.67;100.00
33554;BME280;19885;42.208;24.952;2024-03-06T01:37:52;99695.97;;;9.75;100.00
33554;BME280;19885;42.208;24.952;2024-03-06T01:40:17;99694.28;;;9.80;100.00
33554;BME280;19885;42.208;24.952;2024-03-06T01:42:42;99696.88;;;9.82;100.00
33554;BME280;19885;42.208;24.952;2024-03-06T01:45:10;99695.13;;;9.79;100.00
33554;BME280;19885;42.208;24.952;2024-03-06T01:47:36;99704.72;;;9.83;100.00
33554;BME280;19885;42.208;24.952;2024-03-06T01:50:01;99702.97;;;9.84;100.00
33554;BME280;19885;42.208;24.952;2024-03-06T01:52:27;99703.00;;;9.87;100.00
33554;BME280;19885;42.208;24.952;2024-03-06T01:54:55;99713.41;;;9.88;100.00
33554;BME280;19885;42.208;24.952;2024-03-06T01:57:21;99705.59;;;9.88;100.00
33554;BME280;19885;42.208;24.952;2024-03-06T01:59:46;99709.97;;;9.88;100.00
33554;BME280;19885;42.208;24.952;2024-03-06T02:02:13;99712.56;;;9.89;100.00
33554;BME280;19885;42.208;24.952;2024-03-06T02:04:41;99719.53;;;9.92;100.00
33554;BME280;19885;42.208;24.952;2024-03-06T02:07:10;99717.78;;;9.91;100.00
33554;BME280;19885;42.208;24.952;2024-03-06T02:09:42;99712.53;;;9.86;100.00
33554;BME280;19885;42.208;24.952;2024-03-06T02:12:10;99720.34;;;9.86;100.00
33554;BME280;19885;42.208;24.952;2024-03-06T02:14:36;99716.81;;;9.75;100.00
33554;BME280;19885;42.208;24.952;2024-03-06T02:17:01;99710.69;;;9.69;100.00
33554;BME280;19885;42.208;24.952;2024-03-06T02:19:39;99716.69;;;9.63;100.00
33554;BME280;19885;42.208;24.952;2024-03-06T02:22:08;99725.38;;;9.62;100.00
33554;BME280;19885;42.208;24.952;2024-03-06T02:24:33;99710.53;;;9.52;100.00
33554;BME280;19885;42.208;24.952;2024-03-06T02:26:59;99718.34;;;9.52;100.00
33554;BME280;19885;42.208;24.952;2024-03-06T02:29:25;99718.34;;;9.52;100.00
33554;BME280;19885;42.208;24.952;2024-03-06T02:31:53;99720.13;;;9.59;100.00
33554;BME280;19885;42.208;24.952;2024-03-06T02:34:21;99715.88;;;9.67;100.00
33554;BME280;19885;42.208;24.952;2024-03-06T02:36:46;99714.94;;;9.56;100.00
33554;BME280;19885;42.208;24.952;2024-03-06T02:39:12;99715.78;;;9.57;100.00
33554;BME280;19885;42.208;24.952;2024-03-06T02:41:40;99717.47;;;9.47;100.00
33554;BME280;19885;42.208;24.952;2024-03-06T02:44:06;99713.09;;;9.48;100.00
33554;BME280;19885;42.208;24.952;2024-03-06T02:46:38;99715.66;;;9.42;100.00
33554;BME280;19885;42.208;24.952;2024-03-06T02:49:03;99718.22;;;9.37;100.00
33554;BME280;19885;42.208;24.952;2024-03-06T02:51:31;99726.06;;;9.42;100.00
33554;BME280;19885;42.208;24.952;2024-03-06T02:53:57;99726.97;;;9.48;100.00
33554;BME280;19885;42.208;24.952;2024-03-06T02:56:25;99733.09;;;9.53;100.00
33554;BME280;19885;42.208;24.952;2024-03-06T02:58:54;99724.47;;;9.56;100.00
33554;BME280;19885;42.208;24.952;2024-03-06T03:01:20;99731.31;;;9.46;100.00
33554;BME280;19885;42.208;24.952;2024-03-06T03:03:54;99732.19;;;9.48;100.00
33554;BME280;19885;42.208;24.952;2024-03-06T03:06:20;99730.38;;;9.41;100.00
33554;BME280;19885;42.208;24.952;2024-03-06T03:08:45;99742.47;;;9.33;100.00
33554;BME280;19885;42.208;24.952;2024-03-06T03:11:10;99742.47;;;9.33;100.00
33554;BME280;19885;42.208;24.952;2024-03-06T03:13:41;99747.63;;;9.30;100.00
33554;BME280;19885;42.208;24.952;2024-03-06T03:16:09;99752.03;;;9.37;100.00
33554;BME280;19885;42.208;24.952;2024-03-06T03:18:42;99741.53;;;9.26;100.00
33554;BME280;19885;42.208;24.952;2024-03-06T03:21:08;99740.56;;;9.17;100.00
33554;BME280;19885;42.208;24.952;2024-03-06T03:23:33;99742.34;;;9.21;100.00
33554;BME280;19885;42.208;24.952;2024-03-06T03:26:01;99745.91;;;9.29;100.00
33554;BME280;19885;42.208;24.952;2024-03-06T03:28:30;99748.53;;;9.37;100.00
33554;BME280;19885;42.208;24.952;2024-03-06T03:30:55;99756.47;;;9.47;100.00
33554;BME280;19885;42.208;24.952;2024-03-06T03:33:21;99750.38;;;9.47;100.00
33554;BME280;19885;42.208;24.952;2024-03-06T03:35:47;99749.44;;;9.37;100.00
33554;BME280;19885;42.208;24.952;2024-03-06T03:38:12;99747.66;;;9.33;100.00
33554;BME280;19885;42.208;24.952;2024-03-06T03:40:37;99740.84;;;9.46;100.00
33554;BME280;19885;42.208;24.952;2024-03-06T03:43:05;99746.06;;;9.50;100.00
33554;BME280;19885;42.208;24.952;2024-03-06T03:45:34;99757.22;;;9.37;100.00
33554;BME280;19885;42.208;24.952;2024-03-06T03:48:02;99752.47;;;8.97;100.00
33554;BME280;19885;42.208;24.952;2024-03-06T03:50:30;99757.25;;;8.60;100.00
33554;BME280;19885;42.208;24.952;2024-03-06T03:52:55;99759.06;;;8.68;100.00
33554;BME280;19885;42.208;24.952;2024-03-06T03:55:25;99757.31;;;8.68;100.00
33554;BME280;19885;42.208;24.952;2024-03-06T03:57:53;99761.66;;;8.68;100.00
33554;BME280;19885;42.208;24.952;2024-03-06T04:00:18;99758.84;;;8.52;100.00
33554;BME280;19885;42.208;24.952;2024-03-06T04:02:47;99767.41;;;8.45;100.00
33554;BME280;19885;42.208;24.952;2024-03-06T04:05:15;99769.41;;;8.65;100.00
33554;BME280;19885;42.208;24.952;2024-03-06T04:07:40;99760.59;;;8.53;100.00
33554;BME280;19885;42.208;24.952;2024-03-06T04:10:08;99758.31;;;8.78;100.00
33554;BME280;19885;42.208;24.952;2024-03-06T04:12:36;99766.19;;;8.85;100.00
33554;BME280;19885;42.208;24.952;2024-03-06T04:15:01;99764.47;;;8.86;100.00
33554;BME280;19885;42.208;24.952;2024-03-06T04:17:27;99770.34;;;8.71;100.00
33554;BME280;19885;42.208;24.952;2024-03-06T04:19:52;99768.16;;;8.38;100.00
33554;BME280;19885;42.208;24.952;2024-03-06T04:22:18;99774.28;;;8.40;100.00
33554;BME280;19885;42.208;24.952;2024-03-06T04:24:44;99779.66;;;8.54;100.00
33554;BME280;19885;42.208;24.952;2024-03-06T04:27:09;99776.84;;;8.39;100.00
33554;BME280;19885;42.208;24.952;2024-03-06T04:29:35;99771.69;;;8.42;100.00
33554;BME280;19885;42.208;24.952;2024-03-06T04:32:01;99772.34;;;8.27;100.00
33554;BME280;19885;42.208;24.952;2024-03-06T04:34:26;99770.75;;;8.35;100.00
33554;BME280;19885;42.208;24.952;2024-03-06T04:36:51;99772.66;;;8.50;100.00
33554;BME280;19885;42.208;24.952;2024-03-06T04:39:17;99777.03;;;8.52;100.00
33554;BME280;19885;42.208;24.952;2024-03-06T04:41:42;99771.50;;;8.28;100.00
33554;BME280;19885;42.208;24.952;2024-03-06T04:44:07;99777.53;;;8.27;100.00
33554;BME280;19885;42.208;24.952;2024-03-06T04:46:33;99778.56;;;8.38;100.00
33554;BME280;19885;42.208;24.952;2024-03-06T04:48:58;99777.78;;;8.45;100.00
33554;BME280;19885;42.208;24.952;2024-03-06T04:51:23;99783.22;;;8.60;100.00
33554;BME280;19885;42.208;24.952;2024-03-06T04:53:49;99780.44;;;8.50;100.00
33554;BME280;19885;42.208;24.952;2024-03-06T04:56:14;99790.28;;;8.12;100.00
33554;BME280;19885;42.208;24.952;2024-03-06T04:58:41;99797.19;;;8.13;100.00
33554;BME280;19885;42.208;24.952;2024-03-06T05:01:06;99793.53;;;8.01;100.00
33554;BME280;19885;42.208;24.952;2024-03-06T05:03:32;99795.25;;;7.99;100.00
33554;BME280;19885;42.208;24.952;2024-03-06T05:05:58;99800.28;;;7.88;100.00
33554;BME280;19885;42.208;24.952;2024-03-06T05:08:23;99808.75;;;7.79;100.00
33554;BME280;19885;42.208;24.952;2024-03-06T05:10:49;99804.84;;;7.53;100.00
33554;BME280;19885;42.208;24.952;2024-03-06T05:13:14;99807.13;;;7.37;100.00
33554;BME280;19885;42.208;24.952;2024-03-06T05:15:40;99811.44;;;7.35;100.00
33554;BME280;19885;42.208;24.952;2024-03-06T05:18:05;99812.13;;;7.25;100.00
33554;BME280;19885;42.208;24.952;2024-03-06T05:20:31;99812.31;;;7.37;100.00
33554;BME280;19885;42.208;24.952;2024-03-06T05:22:57;99814.19;;;7.44;100.00
33554;BME280;19885;42.208;24.952;2024-03-06T05:25:22;99813.44;;;7.49;100.00
33554;BME280;19885;42.208;24.952;2024-03-06T05:27:47;99818.72;;;7.57;100.00
33554;BME280;19885;42.208;24.952;2024-03-06T05:30:13;99827.41;;;7.59;100.00
33554;BME280;19885;42.208;24.952;2024-03-06T05:32:40;99829.56;;;7.81;100.00
33554;BME280;19885;42.208;24.952;2024-03-06T05:35:06;99837.28;;;7.78;100.00
33554;BME280;19885;42.208;24.952;2024-03-06T05:37:32;99835.50;;;7.77;100.00
33554;BME280;19885;42.208;24.952;2024-03-06T05:39:57;99832.84;;;7.72;100.00
33554;BME280;19885;42.208;24.952;2024-03-06T05:42:23;99836.59;;;7.89;100.00
33554;BME280;19885;42.208;24.952;2024-03-06T05:44:48;99832.47;;;8.01;100.00
33554;BME280;19885;42.208;24.952;2024-03-06T05:47:15;99833.28;;;7.98;100.00
33554;BME280;19885;42.208;24.952;2024-03-06T05:49:40;99841.00;;;7.93;100.00
33554;BME280;19885;42.208;24.952;2024-03-06T05:52:06;99841.28;;;8.10;100.00
33554;BME280;19885;42.208;24.952;2024-03-06T05:54:31;99843.88;;;8.10;100.00
33554;BME280;19885;42.208;24.952;2024-03-06T05:56:58;99847.50;;;8.20;100.00
33554;BME280;19885;42.208;24.952;2024-03-06T05:59:24;99858.41;;;8.51;100.00
33554;BME280;19885;42.208;24.952;2024-03-06T06:01:49;99852.56;;;8.68;100.00
33554;BME280;19885;42.208;24.952;2024-03-06T06:04:15;99855.44;;;8.87;100.00
33554;BME280;19885;42.208;24.952;2024-03-06T06:06:40;99851.13;;;8.91;100.00
33554;BME280;19885;42.208;24.952;2024-03-06T06:09:06;99859.09;;;9.03;100.00
33554;BME280;19885;42.208;24.952;2024-03-06T06:11:32;99867.78;;;9.05;100.00
33554;BME280;19885;42.208;24.952;2024-03-06T06:13:58;99877.47;;;9.18;100.00
33554;BME280;19885;42.208;24.952;2024-03-06T06:16:23;99867.22;;;9.31;100.00
33554;BME280;19885;42.208;24.952;2024-03-06T06:18:49;99865.56;;;9.37;100.00
33554;BME280;19885;42.208;24.952;2024-03-06T06:21:14;99867.38;;;9.42;100.00
33554;BME280;19885;42.208;24.952;2024-03-06T06:23:41;99867.44;;;9.50;100.00
33554;BME280;19885;42.208;24.952;2024-03-06T06:26:06;99871.84;;;9.55;100.00
33554;BME280;19885;42.208;24.952;2024-03-06T06:28:31;99874.50;;;9.58;100.00
33554;BME280;19885;42.208;24.952;2024-03-06T06:30:57;99871.94;;;9.66;100.00
33554;BME280;19885;42.208;24.952;2024-03-06T06:33:22;99878.88;;;9.62;100.00
33554;BME280;19885;42.208;24.952;2024-03-06T06:35:47;99878.91;;;9.67;100.00
33554;BME280;19885;42.208;24.952;2024-03-06T06:38:13;99883.19;;;9.63;100.00
33554;BME280;19885;42.208;24.952;2024-03-06T06:40:39;99883.19;;;9.60;100.00
33554;BME280;19885;42.208;24.952;2024-03-06T06:43:05;99885.59;;;9.44;100.00
33554;BME280;19885;42.208;24.952;2024-03-06T06:45:31;99889.84;;;9.37;100.00
33554;BME280;19885;42.208;24.952;2024-03-06T06:47:57;99882.97;;;9.42;100.00
33554;BME280;19885;42.208;24.952;2024-03-06T06:50:22;99883.50;;;9.15;100.00
33554;BME280;19885;42.208;24.952;2024-03-06T06:52:50;99883.75;;;9.33;100.00
33554;BME280;19885;42.208;24.952;2024-03-06T06:55:16;99891.72;;;9.50;100.00
33554;BME280;19885;42.208;24.952;2024-03-06T06:57:41;99888.25;;;9.50;100.00
33554;BME280;19885;42.208;24.952;2024-03-06T07:00:07;99884.97;;;9.66;100.00
33554;BME280;19885;42.208;24.952;2024-03-06T07:02:38;99885.00;;;9.70;100.00
33554;BME280;19885;42.208;24.952;2024-03-06T07:05:04;99890.31;;;9.78;100.00
33554;BME280;19885;42.208;24.952;2024-03-06T07:07:30;99893.78;;;9.81;100.00
33554;BME280;19885;42.208;24.952;2024-03-06T07:09:55;99884.31;;;9.85;100.00
33554;BME280;19885;42.208;24.952;2024-03-06T07:12:20;99899.06;;;9.87;100.00
33554;BME280;19885;42.208;24.952;2024-03-06T07:14:47;99885.78;;;9.60;100.00
33554;BME280;19885;42.208;24.952;2024-03-06T07:17:12;99895.00;;;9.34;100.00
33554;BME280;19885;42.208;24.952;2024-03-06T07:19:37;99896.44;;;9.11;100.00
33554;BME280;19885;42.208;24.952;2024-03-06T07:22:04;99885.16;;;9.07;100.00
33554;BME280;19885;42.208;24.952;2024-03-06T07:24:29;99893.16;;;9.24;100.00
33554;BME280;19885;42.208;24.952;2024-03-06T07:26:56;99886.16;;;9.20;100.00
33554;BME280;19885;42.208;24.952;2024-03-06T07:29:22;99892.03;;;9.76;100.00
33554;BME280;19885;42.208;24.952;2024-03-06T07:31:47;99888.75;;;9.99;100.00
33554;BME280;19885;42.208;24.952;2024-03-06T07:34:13;99887.50;;;10.53;100.00
33554;BME280;19885;42.208;24.952;2024-03-06T07:36:38;99886.84;;;10.83;100.00
33554;BME280;19885;42.208;24.952;2024-03-06T07:39:03;99887.06;;;11.22;100.00
33554;BME280;19885;42.208;24.952;2024-03-06T07:41:29;99882.72;;;11.31;100.00
33554;BME280;19885;42.208;24.952;2024-03-06T07:43:55;99880.00;;;11.03;100.00
33554;BME280;19885;42.208;24.952;2024-03-06T07:46:20;99887.03;;;11.19;100.00
33554;BME280;19885;42.208;24.952;2024-03-06T07:48:46;99882.47;;;10.80;100.00
33554;BME280;19885;42.208;24.952;2024-03-06T07:51:12;99885.13;;;10.83;100.00
33554;BME280;19885;42.208;24.952;2024-03-06T07:53:37;99889.69;;;11.26;100.00
33554;BME280;19885;42.208;24.952;2024-03-06T07:56:03;99880.25;;;11.66;100.00
33554;BME280;19885;42.208;24.952;2024-03-06T07:58:28;99886.47;;;12.15;100.00
33554;BME280;19885;42.208;24.952;2024-03-06T08:00:54;99881.22;;;12.33;100.00
33554;BME280;19885;42.208;24.952;2024-03-06T08:03:21;99879.47;;;12.62;100.00
33554;BME280;19885;42.208;24.952;2024-03-06T08:05:49;99883.81;;;12.78;100.00
33554;BME280;19885;42.208;24.952;2024-03-06T08:08:15;99884.69;;;12.71;100.00
33554;BME280;19885;42.208;24.952;2024-03-06T08:10:40;99882.06;;;12.38;100.00
33554;BME280;19885;42.208;24.952;2024-03-06T08:13:05;99888.19;;;12.46;100.00
33554;BME280;19885;42.208;24.952;2024-03-06T08:15:31;99885.56;;;12.31;100.00
33554;BME280;19885;42.208;24.952;2024-03-06T08:17:57;99885.56;;;12.13;100.00
33554;BME280;19885;42.208;24.952;2024-03-06T08:20:22;99879.44;;;11.72;100.00
33554;BME280;19885;42.208;24.952;2024-03-06T08:22:48;99884.66;;;11.87;100.00
33554;BME280;19885;42.208;24.952;2024-03-06T08:25:14;99886.44;;;12.01;100.00
33554;BME280;19885;42.208;24.952;2024-03-06T08:27:40;99884.72;;;12.23;100.00
33554;BME280;19885;42.208;24.952;2024-03-06T08:30:06;99883.84;;;12.10;100.00
33554;BME280;19885;42.208;24.952;2024-03-06T08:32:32;99872.50;;;12.07;100.00
33554;BME280;19885;42.208;24.952;2024-03-06T08:35:02;99877.72;;;12.39;100.00
33554;BME280;19885;42.208;24.952;2024-03-06T08:37:28;99874.22;;;12.65;100.00
33554;BME280;19885;42.208;24.952;2024-03-06T08:39:53;99878.56;;;12.71;100.00
33554;BME280;19885;42.208;24.952;2024-03-06T08:42:18;99876.84;;;12.67;100.00
33554;BME280;19885;42.208;24.952;2024-03-06T08:44:44;99876.00;;;12.24;100.00
33554;BME280;19885;42.208;24.952;2024-03-06T08:47:10;99882.09;;;12.53;100.00
33554;BME280;19885;42.208;24.952;2024-03-06T08:49:40;99876.84;;;12.50;100.00
33554;BME280;19885;42.208;24.952;2024-03-06T08:52:08;99873.38;;;12.65;100.00
33554;BME280;19885;42.208;24.952;2024-03-06T08:54:35;99882.00;;;12.83;100.00
33554;BME280;19885;42.208;24.952;2024-03-06T08:57:01;99880.34;;;12.49;100.00
33554;BME280;19885;42.208;24.952;2024-03-06T08:59:29;99874.13;;;13.09;100.00
33554;BME280;19885;42.208;24.952;2024-03-06T09:01:54;99879.31;;;13.30;100.00
33554;BME280;19885;42.208;24.952;2024-03-06T09:04:21;99880.94;;;13.52;100.00
33554;BME280;19885;42.208;24.952;2024-03-06T09:06:46;99886.09;;;13.69;100.00
33554;BME280;19885;42.208;24.952;2024-03-06T09:09:14;99887.88;;;13.61;100.00
33554;BME280;19885;42.208;24.952;2024-03-06T09:11:40;99880.63;;;14.05;100.00
33554;BME280;19885;42.208;24.952;2024-03-06T09:14:09;99880.28;;;14.51;100.00
33554;BME280;19885;42.208;24.952;2024-03-06T09:16:34;99869.63;;;14.66;100.00
33554;BME280;19885;42.208;24.952;2024-03-06T09:19:00;99873.63;;;14.06;100.00
33554;BME280;19885;42.208;24.952;2024-03-06T09:21:25;99881.72;;;13.68;100.00
33554;BME280;19885;42.208;24.952;2024-03-06T09:23:50;99883.13;;;14.19;100.00
33554;BME280;19885;42.208;24.952;2024-03-06T09:26:16;99819.34;;;14.21;100.00
33554;BME280;19885;42.208;24.952;2024-03-06T09:28:42;99876.00;;;14.41;100.00
33554;BME280;19885;42.208;24.952;2024-03-06T09:31:07;99868.03;;;14.50;100.00
33554;BME280;19885;42.208;24.952;2024-03-06T09:33:38;99871.16;;;14.88;100.00
33554;BME280;19885;42.208;24.952;2024-03-06T09:36:04;99868.22;;;15.17;100.00
33554;BME280;19885;42.208;24.952;2024-03-06T09:38:29;99865.38;;;15.33;100.00
33554;BME280;19885;42.208;24.952;2024-03-06T09:40:58;99862.06;;;15.18;100.00
33554;BME280;19885;42.208;24.952;2024-03-06T09:43:23;99869.16;;;15.11;100.00
33554;BME280;19885;42.208;24.952;2024-03-06T09:45:49;99861.50;;;14.91;100.00
33554;BME280;19885;42.208;24.952;2024-03-06T09:48:15;99859.38;;;15.22;100.00
33554;BME280;19885;42.208;24.952;2024-03-06T09:50:42;99871.03;;;15.00;100.00
33554;BME280;19885;42.208;24.952;2024-03-06T09:53:12;99865.34;;;14.60;100.00
33554;BME280;19885;42.208;24.952;2024-03-06T09:55:40;99857.13;;;14.92;100.00
33554;BME280;19885;42.208;24.952;2024-03-06T09:58:06;99854.00;;;14.57;100.00
33554;BME280;19885;42.208;24.952;2024-03-06T10:00:33;99806.66;;;14.69;100.00
33554;BME280;19885;42.208;24.952;2024-03-06T10:03:02;99850.63;;;15.23;100.00
33554;BME280;19885;42.208;24.952;2024-03-06T10:05:33;99856.19;;;15.67;100.00
33554;BME280;19885;42.208;24.952;2024-03-06T10:08:02;99851.25;;;16.04;98.29
33554;BME280;19885;42.208;24.952;2024-03-06T10:10:29;99857.44;;;15.38;96.55
33554;BME280;19885;42.208;24.952;2024-03-06T10:12:55;99844.63;;;15.79;100.00
33554;BME280;19885;42.208;24.952;2024-03-06T10:15:22;99846.72;;;16.14;100.00
33554;BME280;19885;42.208;24.952;2024-03-06T10:17:48;99839.25;;;16.41;97.00
33554;BME280;19885;42.208;24.952;2024-03-06T10:20:19;99839.88;;;16.57;99.84
33554;BME280;19885;42.208;24.952;2024-03-06T10:22:48;99838.50;;;16.35;91.36
33554;BME280;19885;42.208;24.952;2024-03-06T10:25:14;99837.16;;;16.08;92.38
33554;BME280;19885;42.208;24.952;2024-03-06T10:27:39;99834.88;;;15.89;92.55
33554;BME280;19885;42.208;24.952;2024-03-06T10:30:05;99833.00;;;15.97;94.33
33554;BME280;19885;42.208;24.952;2024-03-06T10:32:36;99832.16;;;16.45;98.11
33554;BME280;19885;42.208;24.952;2024-03-06T10:35:01;99832.97;;;16.52;95.21
33554;BME280;19885;42.208;24.952;2024-03-06T10:37:29;99835.06;;;16.80;94.64
33554;BME280;19885;42.208;24.952;2024-03-06T10:39:58;99828.03;;;16.32;92.25
33554;BME280;19885;42.208;24.952;2024-03-06T10:42:23;99821.84;;;15.81;89.86
33554;BME280;19885;42.208;24.952;2024-03-06T10:44:55;99825.41;;;15.79;90.17
33554;BME280;19885;42.208;24.952;2024-03-06T10:47:22;99827.59;;;16.06;93.81
33554;BME280;19885;42.208;24.952;2024-03-06T10:49:53;99820.13;;;16.32;93.17
33554;BME280;19885;42.208;24.952;2024-03-06T10:52:20;99824.22;;;16.51;96.01
33554;BME280;19885;42.208;24.952;2024-03-06T10:54:46;99820.34;;;16.70;93.83
33554;BME280;19885;42.208;24.952;2024-03-06T10:57:13;99817.59;;;16.76;92.46
33554;BME280;19885;42.208;24.952;2024-03-06T10:59:39;99813.31;;;16.71;92.20
33554;BME280;19885;42.208;24.952;2024-03-06T11:02:07;99810.91;;;16.60;91.29
33554;BME280;19885;42.208;24.952;2024-03-06T11:04:38;99804.03;;;16.50;90.81
33554;BME280;19885;42.208;24.952;2024-03-06T11:07:05;99800.88;;;16.30;93.49
33554;BME280;19885;42.208;24.952;2024-03-06T11:09:34;99809.09;;;16.62;94.48
33554;BME280;19885;42.208;24.952;2024-03-06T11:12:03;99800.03;;;16.77;94.43
33554;BME280;19885;42.208;24.952;2024-03-06T11:14:32;99799.94;;;16.81;92.62
33554;BME280;19885;42.208;24.952;2024-03-06T11:17:01;99799.22;;;16.73;89.23
33554;BME280;19885;42.208;24.952;2024-03-06T11:19:28;99796.16;;;16.49;91.96
33554;BME280;19885;42.208;24.952;2024-03-06T11:21:54;99798.63;;;16.59;95.35
33554;BME280;19885;42.208;24.952;2024-03-06T11:26:48;99795.59;;;16.31;92.94
33554;BME280;19885;42.208;24.952;2024-03-06T11:29:18;99790.44;;;16.25;95.83
33554;BME280;19885;42.208;24.952;2024-03-06T11:31:57;99795.81;;;16.18;96.30
33554;BME280;19885;42.208;24.952;2024-03-06T11:34:24;99785.47;;;16.10;96.57
33554;BME280;19885;42.208;24.952;2024-03-06T11:36:58;99782.44;;;16.31;95.04
33554;BME280;19885;42.208;24.952;2024-03-06T11:39:24;99781.09;;;16.09;94.39
33554;BME280;19885;42.208;24.952;2024-03-06T11:41:50;99780.41;;;15.98;92.93
33554;BME280;19885;42.208;24.952;2024-03-06T11:44:16;99777.34;;;15.70;94.77
33554;BME280;19885;42.208;24.952;2024-03-06T11:46:45;99773.75;;;15.75;96.88
33554;BME280;19885;42.208;24.952;2024-03-06T11:49:16;99774.22;;;15.99;94.54
33554;BME280;19885;42.208;24.952;2024-03-06T11:51:51;99773.91;;;16.17;95.17
33554;BME280;19885;42.208;24.952;2024-03-06T11:54:16;99771.81;;;16.37;96.20
33554;BME280;19885;42.208;24.952;2024-03-06T11:56:49;99765.69;;;16.37;96.32
33554;BME280;19885;42.208;24.952;2024-03-06T11:59:24;99757.63;;;16.44;95.43
33554;BME280;19885;42.208;24.952;2024-03-06T12:01:50;99760.44;;;16.37;92.82
33554;BME280;19885;42.208;24.952;2024-03-06T12:04:15;99761.75;;;16.62;93.40
33554;BME280;19885;42.208;24.952;2024-03-06T12:06:41;99757.16;;;16.72;90.59
33554;BME280;19885;42.208;24.952;2024-03-06T12:09:06;99757.09;;;16.75;90.13
33554;BME280;19885;42.208;24.952;2024-03-06T12:11:36;99757.91;;;16.78;86.41
33554;BME280;19885;42.208;24.952;2024-03-06T12:14:01;99754.16;;;16.90;89.52
33554;BME280;19885;42.208;24.952;2024-03-06T12:16:30;99763.91;;;16.83;86.13
33554;BME280;19885;42.208;24.952;2024-03-06T12:18:56;99750.94;;;17.17;90.74
33554;BME280;19885;42.208;24.952;2024-03-06T12:21:27;99757.97;;;17.17;88.32
33554;BME280;19885;42.208;24.952;2024-03-06T12:24:01;99754.41;;;17.19;86.43
33554;BME280;19885;42.208;24.952;2024-03-06T12:26:27;99749.66;;;17.35;86.48
33554;BME280;19885;42.208;24.952;2024-03-06T12:28:53;99748.56;;;17.43;83.89
33554;BME280;19885;42.208;24.952;2024-03-06T12:31:28;99750.78;;;17.63;82.42
33554;BME280;19885;42.208;24.952;2024-03-06T12:33:58;99743.94;;;17.56;80.68
33554;BME280;19885;42.208;24.952;2024-03-06T12:36:35;99746.53;;;17.57;85.78
33554;BME280;19885;42.208;24.952;2024-03-06T12:39:02;99747.03;;;17.73;88.03
33554;BME280;19885;42.208;24.952;2024-03-06T12:41:31;99743.28;;;17.81;82.35
33554;BME280;19885;42.208;24.952;2024-03-06T12:43:59;99741.59;;;17.79;80.25
33554;BME280;19885;42.208;24.952;2024-03-06T12:46:30;99751.59;;;17.27;79.11
33554;BME280;19885;42.208;24.952;2024-03-06T12:48:56;99744.56;;;17.67;86.10